Accueil
METAR-TAF:

METAR-TAF

Aéroports :

Ribeirão Preto, São Paulo, Brésil

latitude: 21-08S, longitude: 047-47W, altitude: 549 m

Observation

Le bulletin a été fait il y a 43 minutes, à 10:00 UTC
Vent 5 kt de est/nord-est
Température 19°C
Humidité 64%
Pression 1014 hPa
Visibilité: 5000 m
brume sèche

METAR: SBRP 181000Z 06005KT 5000 HZ NSC 19/12 Q1014

Heure: 07:43 (10:43 UTC)

Prévision

Le bulletin a été fait il y a 8 heures et 43 minutes, à 02:00 UTC
Prévision valable du 18 à 06 UTC au 18 à 18 UTC
Vent 3 kt de direction variable
Visibilité 10 km ou plus
pas de nuages en-dessous de 1500 mètres et pas de cumulonimbus.
Evoluant progressivement
du 18 à 07 UTC au 18 à 09 UTC
Vent 5 kt de est/sud-est
Evoluant progressivement
du 18 à 13 UTC au 18 à 15 UTC
Vent 5 kt de nord
Nuages épars à une hauteur de 4500 ft

TAF: SBRP 180200Z 1806/1818 VRB03KT CAVOK TN23/1808Z TX36/1817Z BECMG 1807/1809 12005KT BECMG 1813/1815 35005KT SCT045 RMK PGL

Observations et prévisions météorologiques de plus de 4000 aéroports (messages METAR et TAF).

Les stations disponibles sont représentées par des disques jaunes et rouges sur la carte.

Passer la souris dessus pour voir le nom de la station.

Cliquer dessus pour voir les observations et prévisions météorologiques.

Pour changer de carte: cliquez sur les boutons verts avec une croix noire pour zoomer, sur le bouton vert avec un tiret pour effectuer un zoom arrière, ou sur les flèches vertes pour les cartes adjacentes.


METAR-TAF: